createdAt,value
2018-08-07T00:01:43.851Z,18.80
2018-08-07T00:04:12.626Z,18.80
2018-08-07T00:06:41.233Z,18.80
2018-08-07T00:09:10.820Z,18.70
2018-08-07T00:11:39.013Z,18.70
2018-08-07T00:14:07.465Z,18.50
2018-08-07T00:16:35.853Z,18.50
2018-08-07T00:19:03.994Z,18.50
2018-08-07T00:21:32.258Z,18.50
2018-08-07T00:24:00.448Z,18.40
2018-08-07T00:26:28.610Z,18.40
2018-08-07T00:28:56.802Z,18.40
2018-08-07T00:31:25.101Z,18.30
2018-08-07T00:33:53.754Z,18.30
2018-08-07T00:36:21.919Z,18.20
2018-08-07T00:38:50.222Z,18.10
2018-08-07T00:41:18.450Z,18.00
2018-08-07T00:43:46.662Z,17.90
2018-08-07T00:46:14.911Z,17.80
2018-08-07T00:48:43.097Z,17.80
2018-08-07T00:51:11.265Z,17.70
2018-08-07T00:53:39.477Z,17.70
2018-08-07T00:56:07.722Z,17.60
2018-08-07T00:58:35.926Z,17.60
2018-08-07T01:01:04.085Z,17.50
2018-08-07T01:03:32.257Z,17.60
2018-08-07T01:06:00.442Z,17.60
2018-08-07T01:08:28.809Z,17.60
2018-08-07T01:10:57.005Z,17.50
2018-08-07T01:13:25.634Z,17.50
2018-08-07T01:15:53.855Z,17.40
2018-08-07T01:18:22.085Z,17.40
2018-08-07T01:20:50.316Z,17.30
2018-08-07T01:23:18.562Z,17.20
2018-08-07T01:25:46.721Z,17.10
2018-08-07T01:28:14.922Z,17.10
2018-08-07T01:30:43.166Z,16.90
2018-08-07T01:33:11.349Z,17.00
2018-08-07T01:35:39.519Z,17.00
2018-08-07T01:38:08.187Z,17.00
2018-08-07T01:40:36.682Z,17.10
2018-08-07T01:43:05.080Z,17.20
2018-08-07T01:45:33.313Z,17.20
2018-08-07T01:48:01.526Z,17.20
2018-08-07T01:50:30.025Z,17.20
2018-08-07T01:52:58.244Z,17.30
2018-08-07T01:55:27.829Z,17.30
2018-08-07T01:57:56.422Z,17.20
2018-08-07T02:00:25.490Z,17.20
2018-08-07T02:02:53.753Z,17.10
2018-08-07T02:05:21.912Z,17.20
2018-08-07T02:07:50.074Z,17.20
2018-08-07T02:10:19.349Z,17.10
2018-08-07T02:12:47.558Z,17.00
2018-08-07T02:15:16.230Z,16.90
2018-08-07T02:17:44.487Z,16.90
2018-08-07T02:20:14.893Z,16.90
2018-08-07T02:22:43.789Z,16.90
2018-08-07T02:25:14.305Z,16.80
2018-08-07T02:27:43.013Z,16.70
2018-08-07T02:30:13.190Z,16.70
2018-08-07T02:32:41.902Z,16.60
2018-08-07T02:35:11.322Z,16.70
2018-08-07T02:37:39.999Z,16.60
2018-08-07T02:40:09.414Z,16.60
2018-08-07T02:42:37.610Z,16.60
2018-08-07T02:45:07.961Z,16.50
2018-08-07T02:47:36.295Z,16.50
2018-08-07T02:50:05.377Z,16.50
2018-08-07T02:52:33.560Z,16.50
2018-08-07T02:55:01.774Z,16.30
2018-08-07T02:57:29.957Z,16.20
2018-08-07T02:59:58.174Z,16.10
2018-08-07T03:02:26.346Z,16.10
2018-08-07T03:04:55.026Z,16.10
2018-08-07T03:07:23.247Z,16.10
2018-08-07T03:09:51.662Z,16.10
2018-08-07T03:12:19.841Z,16.00
2018-08-07T03:14:48.026Z,16.00
2018-08-07T03:17:16.190Z,16.00
2018-08-07T03:19:44.414Z,16.00
2018-08-07T03:22:12.614Z,16.00
2018-08-07T03:24:40.818Z,16.10
2018-08-07T03:27:09.078Z,16.10
2018-08-07T03:29:37.265Z,16.20
2018-08-07T03:32:05.479Z,16.30
2018-08-07T03:37:01.681Z,16.20
2018-08-07T03:39:29.874Z,16.10
2018-08-07T03:41:58.033Z,16.00
2018-08-07T03:44:26.245Z,15.90
2018-08-07T03:46:54.476Z,15.80
2018-08-07T03:49:23.287Z,15.80
2018-08-07T03:51:51.335Z,15.70
2018-08-07T03:54:19.591Z,15.70
2018-08-07T03:56:47.781Z,15.70
2018-08-07T03:59:15.974Z,15.80
2018-08-07T04:01:44.174Z,15.80
2018-08-07T04:04:12.369Z,15.90
2018-08-07T04:06:40.554Z,15.90
2018-08-07T04:09:11.666Z,15.90
2018-08-07T04:11:39.976Z,15.90
2018-08-07T04:14:08.617Z,15.90
2018-08-07T04:16:38.798Z,15.90
2018-08-07T04:19:06.996Z,15.90
2018-08-07T04:21:35.220Z,16.00
2018-08-07T04:24:03.426Z,16.00
2018-08-07T04:26:31.666Z,16.10
2018-08-07T04:28:59.829Z,16.20
2018-08-07T04:31:28.043Z,16.40
2018-08-07T04:33:56.228Z,16.40
2018-08-07T04:36:24.538Z,16.60
2018-08-07T04:38:52.778Z,16.70
2018-08-07T04:41:20.953Z,16.80
2018-08-07T04:43:49.130Z,16.90
2018-08-07T04:46:17.777Z,17.00
2018-08-07T04:48:46.026Z,17.10
2018-08-07T04:51:14.261Z,17.10
2018-08-07T04:53:42.873Z,17.20
2018-08-07T04:56:11.081Z,17.30
2018-08-07T04:58:39.289Z,17.40
2018-08-07T05:01:07.667Z,17.60
2018-08-07T05:03:36.777Z,17.80
2018-08-07T05:06:04.953Z,18.00
2018-08-07T05:08:33.524Z,18.30
2018-08-07T05:11:01.785Z,18.60
2018-08-07T05:13:29.963Z,18.90
2018-08-07T05:15:58.252Z,19.10
2018-08-07T05:18:26.465Z,19.30
2018-08-07T05:20:54.682Z,19.40
2018-08-07T05:23:22.833Z,19.60
2018-08-07T05:25:51.549Z,19.80
2018-08-07T05:28:19.746Z,20.30
2018-08-07T05:30:47.969Z,20.70
2018-08-07T05:33:16.141Z,21.20
2018-08-07T05:35:46.012Z,21.70
2018-08-07T05:38:14.565Z,21.90
2018-08-07T05:40:42.818Z,22.10
2018-08-07T05:43:10.969Z,22.10
2018-08-07T05:45:39.802Z,22.20
2018-08-07T05:48:08.013Z,23.00
2018-08-07T05:50:36.355Z,23.30
2018-08-07T05:53:04.405Z,23.10
2018-08-07T05:55:32.984Z,22.80
2018-08-07T05:58:01.239Z,22.60
2018-08-07T06:00:29.409Z,23.30
2018-08-07T06:02:57.613Z,24.50
2018-08-07T06:05:25.806Z,25.90
2018-08-07T06:07:54.030Z,27.30
2018-08-07T06:10:22.211Z,28.50
2018-08-07T06:12:50.357Z,29.10
2018-08-07T06:15:18.748Z,29.50
2018-08-07T06:17:47.341Z,30.10
2018-08-07T06:20:15.510Z,30.60
2018-08-07T06:22:43.748Z,29.80
2018-08-07T06:25:12.026Z,28.90
2018-08-07T06:27:40.275Z,28.50
2018-08-07T06:30:12.073Z,28.30
2018-08-07T06:32:42.294Z,28.40
2018-08-07T06:35:10.681Z,28.40
2018-08-07T06:37:38.860Z,28.60
2018-08-07T06:40:08.997Z,28.90
2018-08-07T06:42:37.493Z,29.80
2018-08-07T06:45:06.404Z,30.60
2018-08-07T06:47:34.761Z,31.00
2018-08-07T06:50:03.182Z,30.90
2018-08-07T06:52:32.138Z,30.50
2018-08-07T06:55:00.325Z,30.40
2018-08-07T06:57:28.490Z,30.70
2018-08-07T06:59:56.677Z,31.80
2018-08-07T07:02:24.912Z,31.60
2018-08-07T07:04:53.159Z,30.70
2018-08-07T07:07:21.370Z,30.00
2018-08-07T07:09:49.603Z,29.40
2018-08-07T07:12:17.825Z,28.80
2018-08-07T07:14:46.915Z,28.80
2018-08-07T07:17:15.085Z,29.70
2018-08-07T07:19:43.309Z,30.00
2018-08-07T07:22:11.477Z,30.00
2018-08-07T07:24:40.037Z,30.80
2018-08-07T07:27:08.190Z,31.90
2018-08-07T07:29:37.087Z,32.40
2018-08-07T07:32:05.873Z,31.90
2018-08-07T07:34:34.131Z,30.90
2018-08-07T07:37:02.335Z,31.30
2018-08-07T07:39:30.544Z,31.10
2018-08-07T07:41:58.713Z,30.90
2018-08-07T07:46:54.969Z,29.80
2018-08-07T07:49:23.170Z,29.30
2018-08-07T07:51:51.354Z,29.00
2018-08-07T07:54:19.598Z,29.70
2018-08-07T07:56:47.847Z,30.60
2018-08-07T07:59:15.997Z,30.80
2018-08-07T08:01:44.234Z,30.60
2018-08-07T08:04:12.623Z,31.50
2018-08-07T08:06:40.878Z,32.30
2018-08-07T08:09:09.054Z,32.90
2018-08-07T08:11:37.294Z,33.30
2018-08-07T08:14:05.519Z,33.40
2018-08-07T08:16:33.775Z,33.70
2018-08-07T08:19:01.958Z,34.30
2018-08-07T08:21:30.202Z,35.20
2018-08-07T08:23:58.423Z,35.50
2018-08-07T08:26:26.618Z,35.70
2018-08-07T08:28:55.177Z,35.80
2018-08-07T08:31:23.773Z,36.00
2018-08-07T08:33:51.985Z,35.60
2018-08-07T08:36:20.236Z,35.80
2018-08-07T08:38:48.688Z,35.70
2018-08-07T08:41:16.871Z,35.50
2018-08-07T08:43:45.063Z,35.50
2018-08-07T08:46:13.316Z,36.00
2018-08-07T08:48:41.598Z,35.90
2018-08-07T08:51:09.726Z,35.60
2018-08-07T08:53:38.763Z,35.10
2018-08-07T08:56:06.991Z,34.80
2018-08-07T08:58:36.565Z,34.50
2018-08-07T09:01:04.785Z,34.50
2018-08-07T09:03:33.014Z,34.20
2018-08-07T09:06:01.198Z,33.90
2018-08-07T09:08:29.395Z,33.90
2018-08-07T09:10:57.720Z,34.30
2018-08-07T09:13:25.913Z,34.60
2018-08-07T09:15:54.069Z,34.70
2018-08-07T09:18:22.271Z,34.70
2018-08-07T09:20:50.809Z,34.90
2018-08-07T09:23:19.009Z,35.40
2018-08-07T09:25:47.403Z,35.30
2018-08-07T09:28:15.383Z,35.40
2018-08-07T09:30:43.601Z,35.70
2018-08-07T09:33:11.914Z,36.20
2018-08-07T09:35:40.097Z,36.90
2018-08-07T09:38:08.322Z,36.40
2018-08-07T09:40:36.501Z,35.80
2018-08-07T09:43:04.769Z,35.80
2018-08-07T09:45:35.162Z,36.40
2018-08-07T09:48:09.031Z,37.60
2018-08-07T09:50:37.325Z,38.50
2018-08-07T09:53:05.638Z,38.70
2018-08-07T09:55:33.881Z,38.60
2018-08-07T09:58:02.638Z,38.50
2018-08-07T10:03:09.282Z,38.70
2018-08-07T10:05:37.700Z,38.70
2018-08-07T10:08:05.877Z,38.50
2018-08-07T10:10:34.084Z,38.30
2018-08-07T10:13:02.517Z,39.20
2018-08-07T10:17:59.305Z,39.20
2018-08-07T10:20:27.450Z,39.20
2018-08-07T10:22:55.997Z,39.50
2018-08-07T10:25:24.374Z,39.30
2018-08-07T10:27:53.045Z,38.70
2018-08-07T10:30:22.805Z,38.10
2018-08-07T10:32:52.527Z,38.10
2018-08-07T10:35:20.731Z,38.40
2018-08-07T10:37:52.969Z,38.20
2018-08-07T10:40:22.993Z,38.20
2018-08-07T10:42:51.250Z,38.60
2018-08-07T10:45:20.563Z,38.30
2018-08-07T10:47:48.890Z,38.70
2018-08-07T10:50:19.276Z,38.10
2018-08-07T10:52:47.867Z,37.90
2018-08-07T10:55:16.519Z,38.50
2018-08-07T10:57:46.354Z,38.80
2018-08-07T11:00:21.806Z,38.90
2018-08-07T11:02:50.710Z,39.10
2018-08-07T11:05:19.465Z,39.00
2018-08-07T11:10:15.994Z,38.70
2018-08-07T11:12:44.234Z,38.70
2018-08-07T11:15:19.294Z,38.70
2018-08-07T11:17:48.419Z,38.60
2018-08-07T11:20:16.984Z,38.20
2018-08-07T11:22:47.734Z,38.10
2018-08-07T11:25:17.937Z,38.30
2018-08-07T11:27:46.109Z,38.30
2018-08-07T11:30:16.590Z,38.20
2018-08-07T11:32:45.230Z,38.10
2018-08-07T11:35:13.942Z,38.20
2018-08-07T11:37:43.209Z,38.20
2018-08-07T11:40:13.841Z,38.60
2018-08-07T11:42:42.341Z,38.60
2018-08-07T11:45:12.853Z,38.50
2018-08-07T11:47:41.107Z,38.70
2018-08-07T11:50:13.177Z,38.70
2018-08-07T11:52:41.455Z,38.80
2018-08-07T11:55:11.569Z,38.40
2018-08-07T11:57:39.762Z,38.40
2018-08-07T12:00:41.090Z,38.10
2018-08-07T12:03:10.593Z,38.00
2018-08-07T12:05:39.102Z,37.90
2018-08-07T12:08:07.880Z,37.80
2018-08-07T12:10:36.057Z,37.60
2018-08-07T12:13:04.262Z,37.60
2018-08-07T12:15:32.413Z,37.70
2018-08-07T12:18:00.617Z,37.60
2018-08-07T12:20:28.931Z,38.00
2018-08-07T12:22:57.823Z,37.80
2018-08-07T12:25:26.377Z,38.00
2018-08-07T12:27:54.673Z,38.30
2018-08-07T12:30:25.661Z,37.90
2018-08-07T12:32:53.902Z,37.80
2018-08-07T12:35:22.156Z,38.00
2018-08-07T12:37:50.475Z,37.90
2018-08-07T12:40:21.001Z,37.90
2018-08-07T12:42:49.767Z,37.90
2018-08-07T12:45:18.156Z,37.80
2018-08-07T12:47:46.954Z,37.70
2018-08-07T12:50:16.042Z,37.90
2018-08-07T12:52:44.290Z,38.00
2018-08-07T12:55:14.212Z,38.10
2018-08-07T12:57:42.591Z,38.00
2018-08-07T13:00:14.143Z,37.50
2018-08-07T13:02:42.407Z,37.10
2018-08-07T13:05:10.631Z,36.70
2018-08-07T13:07:38.783Z,36.20
2018-08-07T13:10:09.798Z,35.50
2018-08-07T13:12:38.535Z,35.30
2018-08-07T13:15:07.799Z,35.40
2018-08-07T13:17:36.066Z,35.40
2018-08-07T13:20:06.240Z,35.40
2018-08-07T13:22:34.859Z,35.40
2018-08-07T13:25:03.058Z,35.70
2018-08-07T13:27:31.725Z,35.70
2018-08-07T13:29:59.990Z,36.00
2018-08-07T13:32:29.232Z,35.80
2018-08-07T13:34:57.449Z,35.40
2018-08-07T13:37:26.075Z,34.90
2018-08-07T13:39:54.265Z,34.50
2018-08-07T13:42:22.545Z,34.30
2018-08-07T13:44:50.697Z,34.00
2018-08-07T13:47:18.906Z,33.80
2018-08-07T13:49:47.124Z,33.60
2018-08-07T13:52:15.410Z,33.30
2018-08-07T13:54:43.594Z,33.00
2018-08-07T13:57:12.094Z,32.80
2018-08-07T13:59:40.327Z,32.60
2018-08-07T14:02:08.785Z,32.40
2018-08-07T14:04:37.626Z,32.00
2018-08-07T14:07:05.804Z,31.80
2018-08-07T14:09:34.110Z,31.60
2018-08-07T14:12:02.429Z,31.30
2018-08-07T14:14:30.567Z,31.00
2018-08-07T14:16:58.709Z,30.70
2018-08-07T14:19:26.882Z,30.50
2018-08-07T14:21:55.118Z,30.20
2018-08-07T14:24:23.353Z,30.00
2018-08-07T14:26:51.642Z,29.80
2018-08-07T14:29:19.857Z,29.70
2018-08-07T14:31:48.147Z,29.70
2018-08-07T14:34:16.356Z,29.70
2018-08-07T14:36:44.583Z,29.70
2018-08-07T14:39:12.786Z,29.70
2018-08-07T14:41:40.918Z,29.80
2018-08-07T14:46:38.355Z,30.10
2018-08-07T14:49:06.573Z,30.10
2018-08-07T14:51:34.801Z,30.00
2018-08-07T14:54:03.010Z,30.10
2018-08-07T14:56:31.157Z,30.10
2018-08-07T14:58:59.332Z,30.00
2018-08-07T15:01:27.504Z,29.90
2018-08-07T15:03:56.865Z,29.60
2018-08-07T15:06:25.083Z,29.50
2018-08-07T15:08:53.250Z,29.30
2018-08-07T15:11:21.418Z,29.40
2018-08-07T15:13:49.621Z,29.40
2018-08-07T15:16:17.788Z,29.50
2018-08-07T15:18:46.092Z,29.60
2018-08-07T15:21:14.691Z,30.10
2018-08-07T15:23:42.875Z,30.10
2018-08-07T15:26:11.194Z,29.90
2018-08-07T15:28:39.381Z,30.70
2018-08-07T15:31:08.463Z,32.10
2018-08-07T15:33:36.643Z,32.70
2018-08-07T15:36:06.666Z,32.80
2018-08-07T15:38:35.390Z,32.90
2018-08-07T15:41:03.629Z,33.20
2018-08-07T15:43:31.977Z,32.90
2018-08-07T15:46:00.190Z,32.70
2018-08-07T15:48:28.397Z,32.70
2018-08-07T15:50:56.639Z,33.20
2018-08-07T15:53:24.818Z,33.70
2018-08-07T15:55:53.005Z,34.10
2018-08-07T15:58:21.143Z,34.40
2018-08-07T16:00:49.417Z,34.50
2018-08-07T16:03:17.653Z,34.30
2018-08-07T16:05:45.840Z,33.70
2018-08-07T16:08:14.073Z,33.50
2018-08-07T16:10:42.301Z,33.90
2018-08-07T16:13:10.870Z,34.40
2018-08-07T16:15:39.016Z,35.10
2018-08-07T16:18:07.549Z,35.80
2018-08-07T16:20:36.042Z,36.20
2018-08-07T16:23:04.501Z,36.30
2018-08-07T16:25:32.702Z,36.10
2018-08-07T16:28:00.871Z,35.80
2018-08-07T16:30:29.514Z,35.70
2018-08-07T16:32:57.589Z,35.70
2018-08-07T16:35:25.821Z,35.50
2018-08-07T16:37:54.076Z,35.50
2018-08-07T16:40:23.489Z,35.60
2018-08-07T16:42:52.889Z,35.60
2018-08-07T16:45:22.327Z,35.80
2018-08-07T16:47:50.857Z,35.80
2018-08-07T16:50:25.142Z,35.40
2018-08-07T16:52:54.417Z,35.20
2018-08-07T16:55:24.902Z,35.10
2018-08-07T16:57:53.165Z,35.00
2018-08-07T17:00:21.674Z,34.90
2018-08-07T17:02:50.457Z,34.50
2018-08-07T17:05:18.817Z,34.40
2018-08-07T17:07:47.855Z,34.10
2018-08-07T17:10:25.145Z,34.00
2018-08-07T17:12:53.354Z,33.80
2018-08-07T17:15:22.302Z,33.70
2018-08-07T17:17:51.339Z,33.60
2018-08-07T17:20:22.584Z,33.50
2018-08-07T17:22:51.350Z,33.30
2018-08-07T17:25:20.817Z,33.40
2018-08-07T17:27:49.568Z,33.40
2018-08-07T17:30:19.649Z,33.30
2018-08-07T17:32:48.033Z,33.20
2018-08-07T17:35:18.243Z,33.10
2018-08-07T17:37:47.123Z,33.10
2018-08-07T17:40:16.833Z,33.00
2018-08-07T17:42:45.027Z,33.00
2018-08-07T17:45:13.409Z,32.80
2018-08-07T17:50:11.759Z,32.50
2018-08-07T17:52:40.077Z,32.30
2018-08-07T17:55:08.994Z,32.10
2018-08-07T17:57:38.491Z,32.00
2018-08-07T18:00:22.609Z,31.80
2018-08-07T18:02:50.813Z,31.70
2018-08-07T18:05:19.029Z,31.60
2018-08-07T18:07:49.063Z,31.50
2018-08-07T18:10:18.429Z,31.40
2018-08-07T18:12:46.677Z,31.20
2018-08-07T18:15:16.077Z,31.00
2018-08-07T18:20:20.109Z,30.70
2018-08-07T18:22:48.674Z,30.70
2018-08-07T18:25:17.633Z,30.50
2018-08-07T18:27:45.964Z,30.40
2018-08-07T18:30:15.659Z,30.20
2018-08-07T18:32:44.276Z,30.10
2018-08-07T18:35:17.645Z,30.00
2018-08-07T18:40:13.758Z,29.70
2018-08-07T18:42:42.403Z,29.60
2018-08-07T18:45:12.291Z,29.50
2018-08-07T18:47:41.888Z,29.40
2018-08-07T18:50:11.777Z,29.30
2018-08-07T18:52:40.671Z,29.20
2018-08-07T18:55:11.562Z,29.10
2018-08-07T18:57:40.650Z,29.00
2018-08-07T19:00:11.077Z,28.80
2018-08-07T19:02:39.795Z,28.60
2018-08-07T19:05:08.941Z,28.40
2018-08-07T19:07:37.717Z,28.10
2018-08-07T19:10:05.896Z,27.90
2018-08-07T19:12:34.074Z,27.80
2018-08-07T19:15:02.234Z,27.70
2018-08-07T19:17:30.390Z,27.60
2018-08-07T19:19:58.630Z,27.50
2018-08-07T19:22:26.797Z,27.40
2018-08-07T19:24:54.981Z,27.30
2018-08-07T19:27:23.166Z,27.10
2018-08-07T19:29:51.832Z,27.00
2018-08-07T19:32:20.075Z,26.90
2018-08-07T19:34:48.271Z,26.70
2018-08-07T19:37:16.443Z,26.60
2018-08-07T19:39:44.582Z,26.50
2018-08-07T19:42:12.799Z,26.40
2018-08-07T19:44:41.029Z,26.30
2018-08-07T19:47:09.534Z,26.20
2018-08-07T19:49:37.729Z,26.10
2018-08-07T19:52:06.166Z,26.10
2018-08-07T19:54:34.479Z,26.00
2018-08-07T19:57:02.641Z,26.00
2018-08-07T19:59:31.025Z,25.90
2018-08-07T20:04:27.198Z,25.70
2018-08-07T20:06:55.354Z,25.70
2018-08-07T20:09:23.698Z,25.60
2018-08-07T20:11:52.061Z,25.50
2018-08-07T20:14:20.486Z,25.40
2018-08-07T20:16:48.659Z,25.30
2018-08-07T20:19:16.990Z,25.20
2018-08-07T20:21:45.403Z,25.10
2018-08-07T20:24:13.601Z,25.10
2018-08-07T20:26:41.841Z,25.10
2018-08-07T20:29:10.057Z,25.10
2018-08-07T20:31:38.289Z,25.10
2018-08-07T20:34:06.501Z,25.00
2018-08-07T20:36:34.760Z,24.80
2018-08-07T20:39:03.026Z,24.80
2018-08-07T20:43:59.250Z,24.70
2018-08-07T20:46:27.839Z,24.60
2018-08-07T20:48:56.046Z,24.60
2018-08-07T20:51:24.273Z,24.50
2018-08-07T20:53:52.453Z,24.40
2018-08-07T20:56:20.637Z,24.40
2018-08-07T20:58:49.656Z,24.40
2018-08-07T21:01:17.957Z,24.30
2018-08-07T21:03:46.165Z,24.30
2018-08-07T21:06:14.378Z,24.30
2018-08-07T21:08:42.550Z,24.30
2018-08-07T21:11:10.732Z,24.30
2018-08-07T21:13:38.946Z,24.30
2018-08-07T21:16:07.182Z,24.30
2018-08-07T21:18:35.324Z,24.30
2018-08-07T21:21:03.853Z,24.30
2018-08-07T21:23:32.102Z,24.30
2018-08-07T21:26:00.301Z,24.30
2018-08-07T21:28:28.583Z,24.30
2018-08-07T21:30:56.850Z,24.30
2018-08-07T21:33:25.048Z,24.40
2018-08-07T21:35:53.244Z,24.50
2018-08-07T21:38:21.377Z,24.60
2018-08-07T21:40:49.664Z,24.60
2018-08-07T21:43:17.806Z,24.60
2018-08-07T21:45:46.243Z,24.50
2018-08-07T21:48:14.460Z,24.40
2018-08-07T21:50:43.363Z,24.30
2018-08-07T21:53:11.609Z,24.30
2018-08-07T21:55:39.810Z,24.20
2018-08-07T21:58:07.950Z,24.20
2018-08-07T22:00:43.240Z,24.10
2018-08-07T22:03:11.473Z,24.10
2018-08-07T22:05:39.717Z,24.10
2018-08-07T22:08:08.794Z,24.10
2018-08-07T22:10:37.127Z,24.10
2018-08-07T22:13:06.198Z,24.00
2018-08-07T22:15:34.431Z,23.90
2018-08-07T22:20:30.574Z,24.00
2018-08-07T22:22:58.791Z,24.10
2018-08-07T22:25:27.028Z,24.10
2018-08-07T22:30:24.224Z,24.10
2018-08-07T22:32:52.390Z,24.20
2018-08-07T22:35:20.605Z,24.20
2018-08-07T22:37:52.433Z,24.10
2018-08-07T22:40:20.616Z,24.20
2018-08-07T22:42:48.851Z,24.20
2018-08-07T22:45:18.144Z,24.30
2018-08-07T22:47:46.394Z,24.30
2018-08-07T22:50:16.022Z,24.40
2018-08-07T22:52:44.713Z,24.40
2018-08-07T22:55:16.355Z,24.40
2018-08-07T22:57:49.551Z,24.50
2018-08-07T23:00:19.530Z,24.50
2018-08-07T23:02:47.645Z,24.50
2018-08-07T23:05:16.889Z,24.40
2018-08-07T23:07:45.097Z,24.30
2018-08-07T23:10:19.666Z,24.20
2018-08-07T23:12:47.923Z,24.10
2018-08-07T23:15:18.130Z,23.90
2018-08-07T23:17:46.913Z,23.80
2018-08-07T23:20:16.653Z,23.70
2018-08-07T23:25:12.878Z,23.50
2018-08-07T23:27:41.041Z,23.40
2018-08-07T23:30:14.967Z,23.40
2018-08-07T23:32:43.156Z,23.30
2018-08-07T23:37:39.602Z,23.10
2018-08-07T23:40:09.297Z,23.00
2018-08-07T23:42:37.576Z,23.00
2018-08-07T23:45:07.071Z,22.90
2018-08-07T23:47:35.363Z,22.90
2018-08-07T23:50:03.530Z,22.80
2018-08-07T23:52:31.681Z,22.90
2018-08-07T23:55:00.359Z,22.80
2018-08-07T23:57:28.536Z,22.80
2018-08-07T23:59:56.724Z,22.90
